sensor_id;sensor_type;location;lat;lon;timestamp;temperature;humidity
27900;DHT22;15243;50.726;7.080;2023-04-15T04:52:29;2.40;99.90
27900;DHT22;15243;50.726;7.080;2023-04-15T04:54:56;2.40;99.90
27900;DHT22;15243;50.726;7.080;2023-04-15T04:57:23;2.40;99.90
27900;DHT22;15243;50.726;7.080;2023-04-15T04:59:51;2.30;99.90
27900;DHT22;15243;50.726;7.080;2023-04-15T05:02:18;2.30;99.90
27900;DHT22;15243;50.726;7.080;2023-04-15T05:04:45;2.30;99.90
27900;DHT22;15243;50.726;7.080;2023-04-15T05:07:12;2.30;99.90
27900;DHT22;15243;50.726;7.080;2023-04-15T05:09:39;2.30;99.90
27900;DHT22;15243;50.726;7.080;2023-04-15T05:12:06;2.30;99.90
27900;DHT22;15243;50.726;7.080;2023-04-15T05:14:34;2.30;99.90
27900;DHT22;15243;50.726;7.080;2023-04-15T05:17:01;2.30;99.90
27900;DHT22;15243;50.726;7.080;2023-04-15T05:19:29;2.30;99.90
27900;DHT22;15243;50.726;7.080;2023-04-15T05:21:56;2.30;99.90
27900;DHT22;15243;50.726;7.080;2023-04-15T05:24:26;2.40;99.90
27900;DHT22;15243;50.726;7.080;2023-04-15T05:29:37;2.40;99.90
27900;DHT22;15243;50.726;7.080;2023-04-15T05:32:10;2.40;99.90
27900;DHT22;15243;50.726;7.080;2023-04-15T05:34:37;2.50;99.90
27900;DHT22;15243;50.726;7.080;2023-04-15T05:37:04;2.70;99.90
27900;DHT22;15243;50.726;7.080;2023-04-15T05:39:31;2.90;99.90
27900;DHT22;15243;50.726;7.080;2023-04-15T05:41:58;3.00;99.90
27900;DHT22;15243;50.726;7.080;2023-04-15T05:44:26;3.20;99.90
27900;DHT22;15243;50.726;7.080;2023-04-15T05:46:53;3.30;99.90
27900;DHT22;15243;50.726;7.080;2023-04-15T05:49:20;3.50;99.90
27900;DHT22;15243;50.726;7.080;2023-04-15T05:51:47;3.60;99.90
27900;DHT22;15243;50.726;7.080;2023-04-15T05:54:14;3.80;99.90
27900;DHT22;15243;50.726;7.080;2023-04-15T05:56:44;3.90;99.90
27900;DHT22;15243;50.726;7.080;2023-04-15T05:59:11;4.10;99.90
27900;DHT22;15243;50.726;7.080;2023-04-15T06:01:38;4.30;99.90
27900;DHT22;15243;50.726;7.080;2023-04-15T06:04:06;4.40;99.90
27900;DHT22;15243;50.726;7.080;2023-04-15T06:06:33;4.70;99.90
27900;DHT22;15243;50.726;7.080;2023-04-15T06:09:03;4.80;99.90
27900;DHT22;15243;50.726;7.080;2023-04-15T06:11:30;5.00;99.90
27900;DHT22;15243;50.726;7.080;2023-04-15T06:13:57;4.90;99.90
27900;DHT22;15243;50.726;7.080;2023-04-15T06:16:24;4.70;99.90
27900;DHT22;15243;50.726;7.080;2023-04-15T06:18:51;4.70;99.90
27900;DHT22;15243;50.726;7.080;2023-04-15T06:21:18;5.00;99.90
27900;DHT22;15243;50.726;7.080;2023-04-15T06:23:45;5.10;99.90
27900;DHT22;15243;50.726;7.080;2023-04-15T06:26:12;5.30;99.90
27900;DHT22;15243;50.726;7.080;2023-04-15T06:28:39;5.40;99.90
27900;DHT22;15243;50.726;7.080;2023-04-15T06:31:05;5.50;99.90
27900;DHT22;15243;50.726;7.080;2023-04-15T06:33:32;5.70;99.90
27900;DHT22;15243;50.726;7.080;2023-04-15T06:36:00;5.80;99.90
27900;DHT22;15243;50.726;7.080;2023-04-15T06:38:28;6.00;99.90
27900;DHT22;15243;50.726;7.080;2023-04-15T06:40:54;6.10;99.90
27900;DHT22;15243;50.726;7.080;2023-04-15T06:43:22;6.40;99.90
27900;DHT22;15243;50.726;7.080;2023-04-15T06:45:49;6.40;99.90
27900;DHT22;15243;50.726;7.080;2023-04-15T06:48:16;6.60;99.90
27900;DHT22;15243;50.726;7.080;2023-04-15T06:50:44;6.70;99.90
27900;DHT22;15243;50.726;7.080;2023-04-15T06:53:11;6.60;99.90
27900;DHT22;15243;50.726;7.080;2023-04-15T06:55:39;6.70;99.90
27900;DHT22;15243;50.726;7.080;2023-04-15T06:58:08;6.80;99.90
27900;DHT22;15243;50.726;7.080;2023-04-15T07:00:35;6.90;99.90
27900;DHT22;15243;50.726;7.080;2023-04-15T07:03:04;7.20;99.90
27900;DHT22;15243;50.726;7.080;2023-04-15T07:05:33;7.50;99.90
27900;DHT22;15243;50.726;7.080;2023-04-15T07:08:03;7.60;99.90
27900;DHT22;15243;50.726;7.080;2023-04-15T07:10:30;7.90;99.90
27900;DHT22;15243;50.726;7.080;2023-04-15T07:12:58;8.10;99.90
27900;DHT22;15243;50.726;7.080;2023-04-15T07:15:25;8.10;99.90
27900;DHT22;15243;50.726;7.080;2023-04-15T07:17:55;8.30;99.90
27900;DHT22;15243;50.726;7.080;2023-04-15T07:20:23;8.20;99.90
27900;DHT22;15243;50.726;7.080;2023-04-15T07:22:50;8.50;99.90
27900;DHT22;15243;50.726;7.080;2023-04-15T07:25:18;8.60;99.90
27900;DHT22;15243;50.726;7.080;2023-04-15T07:27:45;9.00;99.90
27900;DHT22;15243;50.726;7.080;2023-04-15T07:30:19;8.90;99.90
27900;DHT22;15243;50.726;7.080;2023-04-15T07:32:46;9.00;99.90
27900;DHT22;15243;50.726;7.080;2023-04-15T07:35:15;9.00;99.90
27900;DHT22;15243;50.726;7.080;2023-04-15T07:37:47;9.20;99.90
27900;DHT22;15243;50.726;7.080;2023-04-15T07:40:14;9.20;99.90
27900;DHT22;15243;50.726;7.080;2023-04-15T07:42:43;9.20;99.90
27900;DHT22;15243;50.726;7.080;2023-04-15T07:45:11;8.80;99.90
27900;DHT22;15243;50.726;7.080;2023-04-15T07:47:39;8.80;99.90
27900;DHT22;15243;50.726;7.080;2023-04-15T07:50:09;9.00;99.90
27900;DHT22;15243;50.726;7.080;2023-04-15T07:52:56;9.00;99.90
27900;DHT22;15243;50.726;7.080;2023-04-15T07:55:37;9.50;99.90
27900;DHT22;15243;50.726;7.080;2023-04-15T07:58:05;9.60;99.90
27900;DHT22;15243;50.726;7.080;2023-04-15T08:00:33;10.00;99.90
27900;DHT22;15243;50.726;7.080;2023-04-15T08:03:04;10.30;99.90
27900;DHT22;15243;50.726;7.080;2023-04-15T08:05:37;10.40;99.90
27900;DHT22;15243;50.726;7.080;2023-04-15T08:08:07;9.80;99.90
27900;DHT22;15243;50.726;7.080;2023-04-15T08:10:37;9.70;99.90
27900;DHT22;15243;50.726;7.080;2023-04-15T08:13:04;10.00;99.90
27900;DHT22;15243;50.726;7.080;2023-04-15T08:15:31;10.20;99.90
27900;DHT22;15243;50.726;7.080;2023-04-15T08:17:59;10.40;99.90
27900;DHT22;15243;50.726;7.080;2023-04-15T08:20:28;10.50;99.90
27900;DHT22;15243;50.726;7.080;2023-04-15T08:22:55;10.60;99.90
27900;DHT22;15243;50.726;7.080;2023-04-15T08:25:25;10.80;99.90
27900;DHT22;15243;50.726;7.080;2023-04-15T08:28:03;11.10;99.90
27900;DHT22;15243;50.726;7.080;2023-04-15T08:30:32;10.70;99.90
27900;DHT22;15243;50.726;7.080;2023-04-15T08:33:18;10.30;99.90
27900;DHT22;15243;50.726;7.080;2023-04-15T08:35:45;10.30;99.90
27900;DHT22;15243;50.726;7.080;2023-04-15T08:38:13;10.30;99.90
27900;DHT22;15243;50.726;7.080;2023-04-15T08:40:45;10.30;99.90
27900;DHT22;15243;50.726;7.080;2023-04-15T08:43:20;10.50;99.90
27900;DHT22;15243;50.726;7.080;2023-04-15T08:45:49;10.40;99.90
27900;DHT22;15243;50.726;7.080;2023-04-15T08:48:18;10.50;99.90
27900;DHT22;15243;50.726;7.080;2023-04-15T08:50:46;10.70;99.90
27900;DHT22;15243;50.726;7.080;2023-04-15T08:53:14;11.10;99.90
27900;DHT22;15243;50.726;7.080;2023-04-15T08:55:49;10.90;99.90
27900;DHT22;15243;50.726;7.080;2023-04-15T08:58:18;10.80;99.90
27900;DHT22;15243;50.726;7.080;2023-04-15T09:00:52;11.10;99.90
27900;DHT22;15243;50.726;7.080;2023-04-15T09:03:19;11.40;99.90
27900;DHT22;15243;50.726;7.080;2023-04-15T09:06:04;11.60;99.90
27900;DHT22;15243;50.726;7.080;2023-04-15T09:08:32;12.10;99.90
27900;DHT22;15243;50.726;7.080;2023-04-15T09:11:05;12.10;99.90
27900;DHT22;15243;50.726;7.080;2023-04-15T09:13:57;12.40;99.90
27900;DHT22;15243;50.726;7.080;2023-04-15T09:16:27;12.50;99.90
27900;DHT22;15243;50.726;7.080;2023-04-15T09:19:22;12.70;99.90
27900;DHT22;15243;50.726;7.080;2023-04-15T09:21:54;12.70;99.90
27900;DHT22;15243;50.726;7.080;2023-04-15T09:24:38;12.90;99.90
27900;DHT22;15243;50.726;7.080;2023-04-15T09:27:08;13.10;99.90
27900;DHT22;15243;50.726;7.080;2023-04-15T09:29:40;13.20;99.90
27900;DHT22;15243;50.726;7.080;2023-04-15T09:32:13;13.10;99.90
27900;DHT22;15243;50.726;7.080;2023-04-15T09:34:41;13.30;99.90
27900;DHT22;15243;50.726;7.080;2023-04-15T09:37:13;13.10;99.90
27900;DHT22;15243;50.726;7.080;2023-04-15T09:39:57;13.10;99.90
27900;DHT22;15243;50.726;7.080;2023-04-15T09:42:24;13.00;99.90
27900;DHT22;15243;50.726;7.080;2023-04-15T09:44:54;13.00;99.90
27900;DHT22;15243;50.726;7.080;2023-04-15T09:47:28;13.00;99.90
27900;DHT22;15243;50.726;7.080;2023-04-15T09:49:57;13.30;99.90
27900;DHT22;15243;50.726;7.080;2023-04-15T09:52:24;13.50;99.90
27900;DHT22;15243;50.726;7.080;2023-04-15T09:54:53;13.50;99.90
27900;DHT22;15243;50.726;7.080;2023-04-15T09:57:23;13.40;99.90
27900;DHT22;15243;50.726;7.080;2023-04-15T09:59:51;13.10;99.90
27900;DHT22;15243;50.726;7.080;2023-04-15T10:02:19;12.90;99.90
27900;DHT22;15243;50.726;7.080;2023-04-15T10:04:47;13.10;99.90
27900;DHT22;15243;50.726;7.080;2023-04-15T10:07:16;13.20;99.90
27900;DHT22;15243;50.726;7.080;2023-04-15T10:09:50;13.60;99.90
27900;DHT22;15243;50.726;7.080;2023-04-15T10:12:19;13.90;99.90
27900;DHT22;15243;50.726;7.080;2023-04-15T10:14:57;14.10;99.90
27900;DHT22;15243;50.726;7.080;2023-04-15T10:17:27;14.10;99.90
27900;DHT22;15243;50.726;7.080;2023-04-15T10:19:59;14.20;99.90
27900;DHT22;15243;50.726;7.080;2023-04-15T10:22:29;14.10;99.90
27900;DHT22;15243;50.726;7.080;2023-04-15T10:24:57;14.10;99.90
27900;DHT22;15243;50.726;7.080;2023-04-15T10:27:26;14.00;99.90
27900;DHT22;15243;50.726;7.080;2023-04-15T10:30:18;14.00;99.90
27900;DHT22;15243;50.726;7.080;2023-04-15T10:32:48;14.20;99.90
27900;DHT22;15243;50.726;7.080;2023-04-15T10:35:32;14.20;99.90
27900;DHT22;15243;50.726;7.080;2023-04-15T10:38:00;14.00;99.90
27900;DHT22;15243;50.726;7.080;2023-04-15T10:40:31;14.10;99.90
27900;DHT22;15243;50.726;7.080;2023-04-15T10:43:03;14.30;99.90
27900;DHT22;15243;50.726;7.080;2023-04-15T10:45:35;14.40;99.90
27900;DHT22;15243;50.726;7.080;2023-04-15T10:48:06;14.20;99.90
27900;DHT22;15243;50.726;7.080;2023-04-15T10:50:36;13.90;99.90
27900;DHT22;15243;50.726;7.080;2023-04-15T10:53:04;14.10;99.90
27900;DHT22;15243;50.726;7.080;2023-04-15T10:55:33;14.10;99.90
27900;DHT22;15243;50.726;7.080;2023-04-15T10:58:02;14.00;99.90
27900;DHT22;15243;50.726;7.080;2023-04-15T11:00:31;14.10;99.90
27900;DHT22;15243;50.726;7.080;2023-04-15T11:03:06;14.30;99.90
27900;DHT22;15243;50.726;7.080;2023-04-15T11:05:53;14.60;99.90
27900;DHT22;15243;50.726;7.080;2023-04-15T11:08:52;14.80;99.90
27900;DHT22;15243;50.726;7.080;2023-04-15T11:11:22;14.50;99.90
27900;DHT22;15243;50.726;7.080;2023-04-15T11:13:49;14.50;99.90
27900;DHT22;15243;50.726;7.080;2023-04-15T11:16:17;14.20;99.90
27900;DHT22;15243;50.726;7.080;2023-04-15T11:19:03;14.20;99.90
27900;DHT22;15243;50.726;7.080;2023-04-15T11:21:31;13.90;99.90
27900;DHT22;15243;50.726;7.080;2023-04-15T11:23:59;13.80;99.90
27900;DHT22;15243;50.726;7.080;2023-04-15T11:26:28;13.80;99.90
27900;DHT22;15243;50.726;7.080;2023-04-15T11:28:55;13.90;99.90
27900;DHT22;15243;50.726;7.080;2023-04-15T11:31:26;13.90;99.90
27900;DHT22;15243;50.726;7.080;2023-04-15T11:36:36;14.20;99.90
27900;DHT22;15243;50.726;7.080;2023-04-15T11:39:06;14.10;99.90
27900;DHT22;15243;50.726;7.080;2023-04-15T11:41:34;13.90;99.90
27900;DHT22;15243;50.726;7.080;2023-04-15T11:44:02;13.90;99.90
27900;DHT22;15243;50.726;7.080;2023-04-15T11:46:30;14.00;99.90
27900;DHT22;15243;50.726;7.080;2023-04-15T11:48:57;13.80;99.90
27900;DHT22;15243;50.726;7.080;2023-04-15T11:51:25;13.60;99.90
27900;DHT22;15243;50.726;7.080;2023-04-15T11:53:57;13.40;99.90
27900;DHT22;15243;50.726;7.080;2023-04-15T11:56:26;13.40;99.90
27900;DHT22;15243;50.726;7.080;2023-04-15T11:59:01;13.20;99.90
27900;DHT22;15243;50.726;7.080;2023-04-15T12:01:36;13.20;99.90
27900;DHT22;15243;50.726;7.080;2023-04-15T12:04:15;13.30;99.90
27900;DHT22;15243;50.726;7.080;2023-04-15T12:06:50;13.70;99.90
27900;DHT22;15243;50.726;7.080;2023-04-15T12:09:27;13.70;99.90
27900;DHT22;15243;50.726;7.080;2023-04-15T12:11:57;13.80;99.90
27900;DHT22;15243;50.726;7.080;2023-04-15T12:14:38;13.90;99.90
27900;DHT22;15243;50.726;7.080;2023-04-15T12:17:05;13.80;99.90
27900;DHT22;15243;50.726;7.080;2023-04-15T12:19:37;13.70;99.90
27900;DHT22;15243;50.726;7.080;2023-04-15T12:22:08;13.50;99.90
27900;DHT22;15243;50.726;7.080;2023-04-15T12:24:37;13.70;99.90
27900;DHT22;15243;50.726;7.080;2023-04-15T12:27:09;13.50;99.90
27900;DHT22;15243;50.726;7.080;2023-04-15T12:29:39;13.70;99.90
27900;DHT22;15243;50.726;7.080;2023-04-15T12:35:18;13.40;99.90
27900;DHT22;15243;50.726;7.080;2023-04-15T12:37:47;13.00;99.90
27900;DHT22;15243;50.726;7.080;2023-04-15T12:40:14;13.10;99.90
27900;DHT22;15243;50.726;7.080;2023-04-15T12:42:41;13.00;99.90
27900;DHT22;15243;50.726;7.080;2023-04-15T12:45:08;12.90;99.90
27900;DHT22;15243;50.726;7.080;2023-04-15T12:47:35;12.80;99.90
27900;DHT22;15243;50.726;7.080;2023-04-15T12:50:03;12.60;99.90
27900;DHT22;15243;50.726;7.080;2023-04-15T12:52:30;12.50;99.90
27900;DHT22;15243;50.726;7.080;2023-04-15T12:54:57;12.50;99.90
27900;DHT22;15243;50.726;7.080;2023-04-15T12:57:24;12.40;99.90
27900;DHT22;15243;50.726;7.080;2023-04-15T12:59:51;12.40;99.90
27900;DHT22;15243;50.726;7.080;2023-04-15T13:02:18;12.40;99.90
27900;DHT22;15243;50.726;7.080;2023-04-15T13:04:47;12.20;99.90
27900;DHT22;15243;50.726;7.080;2023-04-15T13:07:14;12.30;99.90
27900;DHT22;15243;50.726;7.080;2023-04-15T13:09:42;12.20;99.90
27900;DHT22;15243;50.726;7.080;2023-04-15T13:12:10;12.10;99.90
27900;DHT22;15243;50.726;7.080;2023-04-15T13:14:39;12.20;99.90
27900;DHT22;15243;50.726;7.080;2023-04-15T13:17:15;12.20;99.90
27900;DHT22;15243;50.726;7.080;2023-04-15T13:19:45;12.20;99.90
27900;DHT22;15243;50.726;7.080;2023-04-15T13:22:12;12.10;99.90
27900;DHT22;15243;50.726;7.080;2023-04-15T13:24:40;12.10;99.90
27900;DHT22;15243;50.726;7.080;2023-04-15T13:27:07;12.10;99.90
27900;DHT22;15243;50.726;7.080;2023-04-15T13:29:34;11.90;99.90
27900;DHT22;15243;50.726;7.080;2023-04-15T13:32:01;11.90;99.90
27900;DHT22;15243;50.726;7.080;2023-04-15T13:34:29;11.90;99.90
27900;DHT22;15243;50.726;7.080;2023-04-15T13:36:56;11.80;99.90
27900;DHT22;15243;50.726;7.080;2023-04-15T13:39:23;11.80;99.90
27900;DHT22;15243;50.726;7.080;2023-04-15T13:41:50;11.90;99.90
27900;DHT22;15243;50.726;7.080;2023-04-15T13:44:17;12.00;99.90
27900;DHT22;15243;50.726;7.080;2023-04-15T13:46:47;12.00;99.90
27900;DHT22;15243;50.726;7.080;2023-04-15T13:49:14;12.00;99.90
27900;DHT22;15243;50.726;7.080;2023-04-15T13:51:42;11.80;99.90
27900;DHT22;15243;50.726;7.080;2023-04-15T13:54:09;11.70;99.90
27900;DHT22;15243;50.726;7.080;2023-04-15T13:56:36;11.70;99.90
27900;DHT22;15243;50.726;7.080;2023-04-15T13:59:04;11.70;99.90
27900;DHT22;15243;50.726;7.080;2023-04-15T14:01:33;11.70;99.90
27900;DHT22;15243;50.726;7.080;2023-04-15T14:04:00;11.70;99.90
27900;DHT22;15243;50.726;7.080;2023-04-15T14:06:29;11.70;99.90
27900;DHT22;15243;50.726;7.080;2023-04-15T14:08:57;11.70;99.90
27900;DHT22;15243;50.726;7.080;2023-04-15T14:11:24;11.70;99.90
27900;DHT22;15243;50.726;7.080;2023-04-15T14:13:52;11.70;99.90
27900;DHT22;15243;50.726;7.080;2023-04-15T14:16:19;11.50;99.90
27900;DHT22;15243;50.726;7.080;2023-04-15T14:18:47;11.50;99.90
27900;DHT22;15243;50.726;7.080;2023-04-15T14:21:15;11.50;99.90
27900;DHT22;15243;50.726;7.080;2023-04-15T14:23:42;11.50;99.90
27900;DHT22;15243;50.726;7.080;2023-04-15T14:26:10;11.30;99.90
27900;DHT22;15243;50.726;7.080;2023-04-15T14:28:37;11.30;99.90
27900;DHT22;15243;50.726;7.080;2023-04-15T14:31:05;11.30;99.90
27900;DHT22;15243;50.726;7.080;2023-04-15T14:33:33;11.20;99.90
27900;DHT22;15243;50.726;7.080;2023-04-15T14:35:59;11.20;99.90
27900;DHT22;15243;50.726;7.080;2023-04-15T14:38:27;11.30;99.90
27900;DHT22;15243;50.726;7.080;2023-04-15T14:40:54;11.30;99.90
27900;DHT22;15243;50.726;7.080;2023-04-15T14:43:22;11.20;99.90
27900;DHT22;15243;50.726;7.080;2023-04-15T14:45:49;11.20;99.90
27900;DHT22;15243;50.726;7.080;2023-04-15T14:48:17;11.10;99.90
27900;DHT22;15243;50.726;7.080;2023-04-15T14:50:45;11.10;99.90
27900;DHT22;15243;50.726;7.080;2023-04-15T14:53:13;11.10;99.90
27900;DHT22;15243;50.726;7.080;2023-04-15T14:55:43;11.20;99.90
27900;DHT22;15243;50.726;7.080;2023-04-15T14:58:11;11.20;99.90
27900;DHT22;15243;50.726;7.080;2023-04-15T15:00:38;11.10;99.90
27900;DHT22;15243;50.726;7.080;2023-04-15T15:03:09;11.00;99.90
27900;DHT22;15243;50.726;7.080;2023-04-15T15:05:44;10.90;99.90
27900;DHT22;15243;50.726;7.080;2023-04-15T15:08:18;10.90;99.90
27900;DHT22;15243;50.726;7.080;2023-04-15T15:10:46;11.00;99.90
27900;DHT22;15243;50.726;7.080;2023-04-15T15:13:15;11.00;99.90
27900;DHT22;15243;50.726;7.080;2023-04-15T15:15:43;11.00;99.90
27900;DHT22;15243;50.726;7.080;2023-04-15T15:18:12;11.00;99.90
27900;DHT22;15243;50.726;7.080;2023-04-15T15:20:39;11.00;99.90
27900;DHT22;15243;50.726;7.080;2023-04-15T15:23:06;11.00;99.90
27900;DHT22;15243;50.726;7.080;2023-04-15T15:25:37;11.00;99.90
27900;DHT22;15243;50.726;7.080;2023-04-15T15:28:04;11.00;99.90
27900;DHT22;15243;50.726;7.080;2023-04-15T15:30:32;11.00;99.90
27900;DHT22;15243;50.726;7.080;2023-04-15T15:32:59;10.80;99.90
27900;DHT22;15243;50.726;7.080;2023-04-15T15:35:26;10.80;99.90
27900;DHT22;15243;50.726;7.080;2023-04-15T15:37:53;10.70;99.90
27900;DHT22;15243;50.726;7.080;2023-04-15T15:40:21;10.70;99.90
27900;DHT22;15243;50.726;7.080;2023-04-15T15:42:48;10.70;99.90
27900;DHT22;15243;50.726;7.080;2023-04-15T15:45:16;10.80;99.90
27900;DHT22;15243;50.726;7.080;2023-04-15T15:47:43;10.60;99.90
27900;DHT22;15243;50.726;7.080;2023-04-15T15:50:12;10.70;99.90
27900;DHT22;15243;50.726;7.080;2023-04-15T15:52:39;10.80;99.90
27900;DHT22;15243;50.726;7.080;2023-04-15T15:55:07;10.80;99.90
27900;DHT22;15243;50.726;7.080;2023-04-15T15:57:34;10.70;99.90
27900;DHT22;15243;50.726;7.080;2023-04-15T16:00:01;10.60;99.90
27900;DHT22;15243;50.726;7.080;2023-04-15T16:02:31;10.60;99.90
27900;DHT22;15243;50.726;7.080;2023-04-15T16:05:18;10.50;99.90
27900;DHT22;15243;50.726;7.080;2023-04-15T16:07:45;10.40;99.90
27900;DHT22;15243;50.726;7.080;2023-04-15T16:10:12;10.30;99.90
27900;DHT22;15243;50.726;7.080;2023-04-15T16:12:39;10.30;99.90
27900;DHT22;15243;50.726;7.080;2023-04-15T16:15:11;10.20;99.90
27900;DHT22;15243;50.726;7.080;2023-04-15T16:17:38;10.30;99.90
27900;DHT22;15243;50.726;7.080;2023-04-15T16:20:05;10.30;99.90
27900;DHT22;15243;50.726;7.080;2023-04-15T16:22:33;10.30;99.90
27900;DHT22;15243;50.726;7.080;2023-04-15T16:25:01;10.20;99.90
27900;DHT22;15243;50.726;7.080;2023-04-15T16:27:28;10.20;99.90
27900;DHT22;15243;50.726;7.080;2023-04-15T16:29:56;10.20;99.90
27900;DHT22;15243;50.726;7.080;2023-04-15T16:32:23;10.20;99.90
27900;DHT22;15243;50.726;7.080;2023-04-15T16:34:51;10.20;99.90
27900;DHT22;15243;50.726;7.080;2023-04-15T16:37:19;10.20;99.90
27900;DHT22;15243;50.726;7.080;2023-04-15T16:39:46;10.10;99.90
27900;DHT22;15243;50.726;7.080;2023-04-15T16:42:13;10.10;99.90
27900;DHT22;15243;50.726;7.080;2023-04-15T16:44:40;10.10;99.90
27900;DHT22;15243;50.726;7.080;2023-04-15T16:47:08;10.10;99.90
27900;DHT22;15243;50.726;7.080;2023-04-15T16:49:37;10.10;99.90
27900;DHT22;15243;50.726;7.080;2023-04-15T16:52:04;10.10;99.90
27900;DHT22;15243;50.726;7.080;2023-04-15T16:54:32;10.10;99.90
27900;DHT22;15243;50.726;7.080;2023-04-15T16:57:00;10.00;99.90
27900;DHT22;15243;50.726;7.080;2023-04-15T16:59:28;10.00;99.90
27900;DHT22;15243;50.726;7.080;2023-04-15T17:01:56;10.00;99.90
27900;DHT22;15243;50.726;7.080;2023-04-15T17:04:23;10.00;99.90
27900;DHT22;15243;50.726;7.080;2023-04-15T17:06:50;9.90;99.90
27900;DHT22;15243;50.726;7.080;2023-04-15T17:09:18;9.90;99.90
27900;DHT22;15243;50.726;7.080;2023-04-15T17:11:46;10.00;99.90
27900;DHT22;15243;50.726;7.080;2023-04-15T17:14:13;10.00;99.90
27900;DHT22;15243;50.726;7.080;2023-04-15T17:16:40;10.00;99.90
27900;DHT22;15243;50.726;7.080;2023-04-15T17:19:08;10.00;99.90
27900;DHT22;15243;50.726;7.080;2023-04-15T17:21:36;10.00;99.90
27900;DHT22;15243;50.726;7.080;2023-04-15T17:24:04;9.90;99.90
27900;DHT22;15243;50.726;7.080;2023-04-15T17:26:32;9.80;99.90
27900;DHT22;15243;50.726;7.080;2023-04-15T17:28:59;9.80;99.90
27900;DHT22;15243;50.726;7.080;2023-04-15T17:31:27;9.60;99.90
27900;DHT22;15243;50.726;7.080;2023-04-15T17:33:55;9.70;99.90
27900;DHT22;15243;50.726;7.080;2023-04-15T17:36:33;9.60;99.90
27900;DHT22;15243;50.726;7.080;2023-04-15T17:39:00;9.70;99.90
27900;DHT22;15243;50.726;7.080;2023-04-15T17:41:27;9.70;99.90
27900;DHT22;15243;50.726;7.080;2023-04-15T17:43:54;9.70;99.90
27900;DHT22;15243;50.726;7.080;2023-04-15T17:46:21;9.60;99.90
27900;DHT22;15243;50.726;7.080;2023-04-15T17:48:49;9.70;99.90
27900;DHT22;15243;50.726;7.080;2023-04-15T17:51:18;9.70;99.90
27900;DHT22;15243;50.726;7.080;2023-04-15T17:53:46;9.50;99.90
27900;DHT22;15243;50.726;7.080;2023-04-15T17:56:13;9.60;99.90
27900;DHT22;15243;50.726;7.080;2023-04-15T17:58:40;9.70;99.90
27900;DHT22;15243;50.726;7.080;2023-04-15T18:01:07;9.70;99.90
27900;DHT22;15243;50.726;7.080;2023-04-15T18:03:34;9.70;99.90
27900;DHT22;15243;50.726;7.080;2023-04-15T18:06:02;9.70;99.90
27900;DHT22;15243;50.726;7.080;2023-04-15T18:08:30;9.70;99.90
27900;DHT22;15243;50.726;7.080;2023-04-15T18:10:57;9.70;99.90
27900;DHT22;15243;50.726;7.080;2023-04-15T18:13:30;9.70;99.90
27900;DHT22;15243;50.726;7.080;2023-04-15T18:16:00;9.70;99.90
27900;DHT22;15243;50.726;7.080;2023-04-15T18:18:27;9.70;99.90
27900;DHT22;15243;50.726;7.080;2023-04-15T18:20:54;9.60;99.90
27900;DHT22;15243;50.726;7.080;2023-04-15T18:23:23;9.60;99.90
27900;DHT22;15243;50.726;7.080;2023-04-15T18:25:51;9.60;99.90
27900;DHT22;15243;50.726;7.080;2023-04-15T18:28:21;9.60;99.90
27900;DHT22;15243;50.726;7.080;2023-04-15T18:30:48;9.50;99.90
27900;DHT22;15243;50.726;7.080;2023-04-15T18:33:15;9.50;99.90
27900;DHT22;15243;50.726;7.080;2023-04-15T18:35:43;9.50;99.90
27900;DHT22;15243;50.726;7.080;2023-04-15T18:38:10;9.50;99.90
27900;DHT22;15243;50.726;7.080;2023-04-15T18:40:37;9.50;99.90
27900;DHT22;15243;50.726;7.080;2023-04-15T18:43:05;9.50;99.90
27900;DHT22;15243;50.726;7.080;2023-04-15T18:45:32;9.40;99.90
27900;DHT22;15243;50.726;7.080;2023-04-15T18:47:59;9.50;99.90
27900;DHT22;15243;50.726;7.080;2023-04-15T18:50:34;9.50;99.90
27900;DHT22;15243;50.726;7.080;2023-04-15T18:53:01;9.50;99.90
27900;DHT22;15243;50.726;7.080;2023-04-15T18:55:28;9.50;99.90
27900;DHT22;15243;50.726;7.080;2023-04-15T18:57:55;9.40;99.90
27900;DHT22;15243;50.726;7.080;2023-04-15T19:00:37;9.30;99.90
27900;DHT22;15243;50.726;7.080;2023-04-15T19:03:07;9.30;99.90
27900;DHT22;15243;50.726;7.080;2023-04-15T19:05:44;9.30;99.90
27900;DHT22;15243;50.726;7.080;2023-04-15T19:08:36;9.10;99.90
27900;DHT22;15243;50.726;7.080;2023-04-15T19:11:18;9.10;99.90
27900;DHT22;15243;50.726;7.080;2023-04-15T19:13:45;9.10;99.90
27900;DHT22;15243;50.726;7.080;2023-04-15T19:16:23;9.10;99.90
27900;DHT22;15243;50.726;7.080;2023-04-15T19:18:59;9.10;99.90
27900;DHT22;15243;50.726;7.080;2023-04-15T19:21:37;9.10;99.90
27900;DHT22;15243;50.726;7.080;2023-04-15T19:24:21;9.10;99.90
27900;DHT22;15243;50.726;7.080;2023-04-15T19:26:55;9.10;99.90
27900;DHT22;15243;50.726;7.080;2023-04-15T19:29:52;9.00;99.90
27900;DHT22;15243;50.726;7.080;2023-04-15T19:32:34;8.90;99.90
27900;DHT22;15243;50.726;7.080;2023-04-15T19:35:22;8.80;99.90
27900;DHT22;15243;50.726;7.080;2023-04-15T19:38:00;8.70;99.90
27900;DHT22;15243;50.726;7.080;2023-04-15T19:40:35;8.80;99.90
27900;DHT22;15243;50.726;7.080;2023-04-15T19:43:12;8.70;99.90
27900;DHT22;15243;50.726;7.080;2023-04-15T19:45:57;8.70;99.90
27900;DHT22;15243;50.726;7.080;2023-04-15T19:48:38;8.60;99.90
27900;DHT22;15243;50.726;7.080;2023-04-15T19:51:06;8.60;99.90
27900;DHT22;15243;50.726;7.080;2023-04-15T19:53:39;8.50;99.90
27900;DHT22;15243;50.726;7.080;2023-04-15T19:56:15;8.50;99.90
27900;DHT22;15243;50.726;7.080;2023-04-15T19:58:44;8.60;99.90
27900;DHT22;15243;50.726;7.080;2023-04-15T20:01:47;8.50;99.90
27900;DHT22;15243;50.726;7.080;2023-04-15T20:04:23;8.60;99.90
27900;DHT22;15243;50.726;7.080;2023-04-15T20:07:07;8.60;99.90
27900;DHT22;15243;50.726;7.080;2023-04-15T20:09:38;8.60;99.90
27900;DHT22;15243;50.726;7.080;2023-04-15T20:12:25;8.60;99.90
27900;DHT22;15243;50.726;7.080;2023-04-15T20:15:23;8.50;99.90
27900;DHT22;15243;50.726;7.080;2023-04-15T20:18:07;8.50;99.90
27900;DHT22;15243;50.726;7.080;2023-04-15T20:20:46;8.40;99.90
27900;DHT22;15243;50.726;7.080;2023-04-15T20:23:20;8.40;99.90
27900;DHT22;15243;50.726;7.080;2023-04-15T20:25:48;8.40;99.90
27900;DHT22;15243;50.726;7.080;2023-04-15T20:28:21;8.30;99.90
27900;DHT22;15243;50.726;7.080;2023-04-15T20:30:57;8.30;99.90
27900;DHT22;15243;50.726;7.080;2023-04-15T20:33:31;8.30;99.90
27900;DHT22;15243;50.726;7.080;2023-04-15T20:36:14;8.20;99.90
27900;DHT22;15243;50.726;7.080;2023-04-15T20:38:50;8.20;99.90
27900;DHT22;15243;50.726;7.080;2023-04-15T20:41:23;8.20;99.90
27900;DHT22;15243;50.726;7.080;2023-04-15T20:44:07;8.20;99.90
27900;DHT22;15243;50.726;7.080;2023-04-15T20:46:34;8.20;99.90
27900;DHT22;15243;50.726;7.080;2023-04-15T20:49:02;8.20;99.90
27900;DHT22;15243;50.726;7.080;2023-04-15T20:51:33;8.10;99.90
27900;DHT22;15243;50.726;7.080;2023-04-15T20:54:04;8.20;99.90
27900;DHT22;15243;50.726;7.080;2023-04-15T20:56:32;8.10;99.90